Terminal Aerodrome Forecast
Issued by NWS

Home | Current Version | Previous Version | Text Only | Print | Product List | Glossary On
Versions: 1 2 3 4 5 6 7 8 9 10 11 12 13
252
FTUS45 KREV 251720
TAFMMH
TAF
KMMH 251720Z 2518/2618 25018G28KT P6SM SKC
     FM260400 28010KT P6SM SKC
     FM261100 31004KT P6SM SKC=

USA.gov is the U.S. government's official web portal to all federal, state and local government web resources and services.